sensor_id;sensor_type;location;lat;lon;timestamp;pressure;altitude;pressure_sealevel;temperature;humidity
14343;BME280;7255;53.596;9.960;2023-05-23T00:02:12;101084.59;;;18.01;nan
14343;BME280;7255;53.596;9.960;2023-05-23T00:04:39;101087.87;;;18.03;nan
14343;BME280;7255;53.596;9.960;2023-05-23T00:07:07;101086.78;;;18.09;nan
14343;BME280;7255;53.596;9.960;2023-05-23T00:09:33;101071.84;;;18.12;nan
14343;BME280;7255;53.596;9.960;2023-05-23T00:12:00;101076.47;;;18.17;nan
14343;BME280;7255;53.596;9.960;2023-05-23T00:14:27;101068.91;;;18.19;nan
14343;BME280;7255;53.596;9.960;2023-05-23T00:16:58;101063.47;;;18.19;nan
14343;BME280;7255;53.596;9.960;2023-05-23T00:19:26;101058.84;;;18.19;nan
14343;BME280;7255;53.596;9.960;2023-05-23T00:21:52;101066.16;;;18.24;nan
14343;BME280;7255;53.596;9.960;2023-05-23T00:24:22;101067.31;;;18.38;nan
14343;BME280;7255;53.596;9.960;2023-05-23T00:26:49;101067.34;;;18.59;nan
14343;BME280;7255;53.596;9.960;2023-05-23T00:29:15;101059.69;;;18.40;nan
14343;BME280;7255;53.596;9.960;2023-05-23T00:31:42;101054.25;;;18.40;nan
14343;BME280;7255;53.596;9.960;2023-05-23T00:34:10;101047.16;;;18.29;nan
14343;BME280;7255;53.596;9.960;2023-05-23T00:36:38;101050.13;;;18.27;nan
14343;BME280;7255;53.596;9.960;2023-05-23T00:39:06;101052.03;;;18.22;nan
14343;BME280;7255;53.596;9.960;2023-05-23T00:41:32;101053.41;;;18.30;nan
14343;BME280;7255;53.596;9.960;2023-05-23T00:43:58;101051.47;;;18.15;nan
14343;BME280;7255;53.596;9.960;2023-05-23T00:46:26;101051.97;;;18.01;nan
14343;BME280;7255;53.596;9.960;2023-05-23T00:48:53;101050.00;;;17.86;nan
14343;BME280;7255;53.596;9.960;2023-05-23T00:51:20;101039.91;;;17.77;nan
14343;BME280;7255;53.596;9.960;2023-05-23T00:53:48;101036.91;;;17.78;nan
14343;BME280;7255;53.596;9.960;2023-05-23T00:56:14;101036.69;;;17.85;nan
14343;BME280;7255;53.596;9.960;2023-05-23T00:58:40;101040.53;;;17.94;nan
14343;BME280;7255;53.596;9.960;2023-05-23T01:01:07;101035.62;;;17.91;nan
14343;BME280;7255;53.596;9.960;2023-05-23T01:03:33;101040.25;;;17.91;nan
14343;BME280;7255;53.596;9.960;2023-05-23T01:06:00;101037.03;;;17.99;nan
14343;BME280;7255;53.596;9.960;2023-05-23T01:08:28;101021.81;;;18.03;nan
14343;BME280;7255;53.596;9.960;2023-05-23T01:11:00;101026.16;;;18.09;nan
14343;BME280;7255;53.596;9.960;2023-05-23T01:13:36;101027.84;;;18.15;nan
14343;BME280;7255;53.596;9.960;2023-05-23T01:16:06;101025.94;;;18.26;nan
14343;BME280;7255;53.596;9.960;2023-05-23T01:18:39;101020.75;;;18.30;nan
14343;BME280;7255;53.596;9.960;2023-05-23T01:21:10;101024.06;;;18.32;nan
14343;BME280;7255;53.596;9.960;2023-05-23T01:23:59;101024.31;;;18.35;nan
14343;BME280;7255;53.596;9.960;2023-05-23T01:26:32;101013.19;;;18.42;nan
14343;BME280;7255;53.596;9.960;2023-05-23T01:29:10;101021.34;;;18.47;nan
14343;BME280;7255;53.596;9.960;2023-05-23T01:31:41;101018.38;;;18.49;nan
14343;BME280;7255;53.596;9.960;2023-05-23T01:34:09;101014.25;;;18.46;nan
14343;BME280;7255;53.596;9.960;2023-05-23T01:36:39;101018.09;;;18.45;nan
14343;BME280;7255;53.596;9.960;2023-05-23T01:39:05;101014.81;;;18.53;nan
14343;BME280;7255;53.596;9.960;2023-05-23T01:41:32;101015.38;;;18.60;nan
14343;BME280;7255;53.596;9.960;2023-05-23T01:43:58;101011.28;;;18.58;nan
14343;BME280;7255;53.596;9.960;2023-05-23T01:46:27;101014.56;;;18.60;nan
14343;BME280;7255;53.596;9.960;2023-05-23T01:48:56;101015.09;;;18.77;nan
14343;BME280;7255;53.596;9.960;2023-05-23T01:51:24;101009.66;;;18.77;nan
14343;BME280;7255;53.596;9.960;2023-05-23T01:53:51;101013.19;;;18.67;nan
14343;BME280;7255;53.596;9.960;2023-05-23T01:56:18;101008.53;;;18.22;nan
14343;BME280;7255;53.596;9.960;2023-05-23T01:58:46;101018.22;;;17.87;nan
14343;BME280;7255;53.596;9.960;2023-05-23T02:01:12;101017.41;;;17.34;nan
14343;BME280;7255;53.596;9.960;2023-05-23T02:03:40;101012.25;;;16.95;nan
14343;BME280;7255;53.596;9.960;2023-05-23T02:06:07;101006.56;;;16.64;nan
14343;BME280;7255;53.596;9.960;2023-05-23T02:08:33;101013.13;;;16.41;nan
14343;BME280;7255;53.596;9.960;2023-05-23T02:10:59;101009.34;;;16.14;nan
14343;BME280;7255;53.596;9.960;2023-05-23T02:13:26;101007.19;;;16.16;nan
14343;BME280;7255;53.596;9.960;2023-05-23T02:15:52;101016.50;;;16.26;nan
14343;BME280;7255;53.596;9.960;2023-05-23T02:18:18;101018.38;;;15.98;nan
14343;BME280;7255;53.596;9.960;2023-05-23T02:20:46;101020.00;;;16.21;nan
14343;BME280;7255;53.596;9.960;2023-05-23T02:23:12;101019.28;;;16.31;nan
14343;BME280;7255;53.596;9.960;2023-05-23T02:25:39;101027.84;;;16.23;nan
14343;BME280;7255;53.596;9.960;2023-05-23T02:28:05;101027.25;;;16.15;nan
14343;BME280;7255;53.596;9.960;2023-05-23T02:30:31;101024.34;;;16.00;nan
14343;BME280;7255;53.596;9.960;2023-05-23T02:32:57;101026.19;;;15.94;nan
14343;BME280;7255;53.596;9.960;2023-05-23T02:35:24;101033.44;;;15.89;nan
14343;BME280;7255;53.596;9.960;2023-05-23T02:37:51;101028.97;;;16.00;nan
14343;BME280;7255;53.596;9.960;2023-05-23T02:40:18;101036.41;;;15.87;nan
14343;BME280;7255;53.596;9.960;2023-05-23T02:42:44;101035.78;;;15.80;nan
14343;BME280;7255;53.596;9.960;2023-05-23T02:45:10;101033.00;;;15.75;nan
14343;BME280;7255;53.596;9.960;2023-05-23T02:47:37;101029.06;;;15.83;nan
14343;BME280;7255;53.596;9.960;2023-05-23T02:50:03;101032.09;;;15.91;nan
14343;BME280;7255;53.596;9.960;2023-05-23T02:52:31;101037.53;;;15.91;nan
14343;BME280;7255;53.596;9.960;2023-05-23T02:54:59;101033.06;;;16.02;nan
14343;BME280;7255;53.596;9.960;2023-05-23T02:57:25;101029.38;;;16.13;nan
14343;BME280;7255;53.596;9.960;2023-05-23T02:59:52;101029.38;;;15.86;nan
14343;BME280;7255;53.596;9.960;2023-05-23T03:02:18;101034.16;;;16.06;nan
14343;BME280;7255;53.596;9.960;2023-05-23T03:04:45;101024.19;;;16.34;nan
14343;BME280;7255;53.596;9.960;2023-05-23T03:07:12;101031.03;;;16.42;nan
14343;BME280;7255;53.596;9.960;2023-05-23T03:09:39;101036.34;;;16.31;nan
14343;BME280;7255;53.596;9.960;2023-05-23T03:12:07;101035.72;;;16.24;nan
14343;BME280;7255;53.596;9.960;2023-05-23T03:14:33;101032.25;;;16.02;nan
14343;BME280;7255;53.596;9.960;2023-05-23T03:16:59;101032.31;;;15.85;nan
14343;BME280;7255;53.596;9.960;2023-05-23T03:19:28;101035.34;;;15.88;nan
14343;BME280;7255;53.596;9.960;2023-05-23T03:21:54;101033.66;;;15.65;nan
14343;BME280;7255;53.596;9.960;2023-05-23T03:24:20;101026.53;;;15.37;nan
14343;BME280;7255;53.596;9.960;2023-05-23T03:26:46;101020.25;;;15.53;nan
14343;BME280;7255;53.596;9.960;2023-05-23T03:29:14;101029.16;;;15.32;nan
14343;BME280;7255;53.596;9.960;2023-05-23T03:31:40;101028.81;;;15.28;nan
14343;BME280;7255;53.596;9.960;2023-05-23T03:34:07;101022.59;;;15.28;nan
14343;BME280;7255;53.596;9.960;2023-05-23T03:36:33;101028.81;;;15.28;nan
14343;BME280;7255;53.596;9.960;2023-05-23T03:39:00;101038.00;;;15.27;nan
14343;BME280;7255;53.596;9.960;2023-05-23T03:41:26;101024.75;;;15.09;nan
14343;BME280;7255;53.596;9.960;2023-05-23T03:43:52;101025.41;;;15.16;nan
14343;BME280;7255;53.596;9.960;2023-05-23T03:46:20;101020.63;;;15.23;nan
14343;BME280;7255;53.596;9.960;2023-05-23T03:48:46;101015.38;;;15.33;nan
14343;BME280;7255;53.596;9.960;2023-05-23T03:51:12;101015.38;;;15.33;nan
14343;BME280;7255;53.596;9.960;2023-05-23T03:53:39;101011.91;;;15.38;nan
14343;BME280;7255;53.596;9.960;2023-05-23T03:56:05;101004.03;;;15.36;nan
14343;BME280;7255;53.596;9.960;2023-05-23T03:58:31;101023.25;;;15.18;nan
14343;BME280;7255;53.596;9.960;2023-05-23T04:00:58;101022.12;;;15.14;nan
14343;BME280;7255;53.596;9.960;2023-05-23T04:03:27;101015.72;;;15.03;nan
14343;BME280;7255;53.596;9.960;2023-05-23T04:05:56;101015.28;;;15.28;nan
14343;BME280;7255;53.596;9.960;2023-05-23T04:08:23;101009.81;;;15.23;nan
14343;BME280;7255;53.596;9.960;2023-05-23T04:10:49;101027.69;;;15.24;nan
14343;BME280;7255;53.596;9.960;2023-05-23T04:13:15;101021.91;;;15.37;nan
14343;BME280;7255;53.596;9.960;2023-05-23T04:15:42;101032.09;;;15.30;nan
14343;BME280;7255;53.596;9.960;2023-05-23T04:18:09;101026.16;;;15.50;nan
14343;BME280;7255;53.596;9.960;2023-05-23T04:20:36;101020.75;;;15.50;nan
14343;BME280;7255;53.596;9.960;2023-05-23T04:23:03;101027.94;;;15.62;nan
14343;BME280;7255;53.596;9.960;2023-05-23T04:25:29;101037.69;;;15.40;nan
14343;BME280;7255;53.596;9.960;2023-05-23T04:27:55;101038.34;;;15.14;nan
14343;BME280;7255;53.596;9.960;2023-05-23T04:30:21;101039.16;;;15.14;nan
14343;BME280;7255;53.596;9.960;2023-05-23T04:32:48;101043.41;;;15.27;nan
14343;BME280;7255;53.596;9.960;2023-05-23T04:35:14;101045.88;;;15.29;nan
14343;BME280;7255;53.596;9.960;2023-05-23T04:37:42;101054.25;;;15.27;nan
14343;BME280;7255;53.596;9.960;2023-05-23T04:40:10;101054.28;;;14.93;nan
14343;BME280;7255;53.596;9.960;2023-05-23T04:42:37;101055.75;;;14.84;nan
14343;BME280;7255;53.596;9.960;2023-05-23T04:45:07;101056.56;;;14.85;nan
14343;BME280;7255;53.596;9.960;2023-05-23T04:47:34;101049.53;;;15.00;nan
14343;BME280;7255;53.596;9.960;2023-05-23T04:50:01;101048.03;;;15.10;nan
14343;BME280;7255;53.596;9.960;2023-05-23T04:52:28;101048.03;;;15.10;nan
14343;BME280;7255;53.596;9.960;2023-05-23T04:54:58;101053.75;;;15.30;nan
14343;BME280;7255;53.596;9.960;2023-05-23T04:57:25;101049.47;;;15.34;nan
14343;BME280;7255;53.596;9.960;2023-05-23T04:59:51;101059.84;;;15.20;nan
14343;BME280;7255;53.596;9.960;2023-05-23T05:02:18;101056.72;;;15.12;nan
14343;BME280;7255;53.596;9.960;2023-05-23T05:04:44;101053.28;;;14.99;nan
14343;BME280;7255;53.596;9.960;2023-05-23T05:07:11;101063.63;;;15.02;nan
14343;BME280;7255;53.596;9.960;2023-05-23T05:09:37;101055.06;;;15.11;nan
14343;BME280;7255;53.596;9.960;2023-05-23T05:12:05;101055.41;;;15.14;nan
14343;BME280;7255;53.596;9.960;2023-05-23T05:14:32;101061.16;;;15.18;nan
14343;BME280;7255;53.596;9.960;2023-05-23T05:16:58;101060.50;;;15.11;nan
14343;BME280;7255;53.596;9.960;2023-05-23T05:19:26;101059.16;;;15.30;nan
14343;BME280;7255;53.596;9.960;2023-05-23T05:21:53;101060.63;;;15.38;nan
14343;BME280;7255;53.596;9.960;2023-05-23T05:24:19;101058.81;;;15.44;nan
14343;BME280;7255;53.596;9.960;2023-05-23T05:26:46;101054.56;;;15.48;nan
14343;BME280;7255;53.596;9.960;2023-05-23T05:29:14;101053.22;;;15.50;nan
14343;BME280;7255;53.596;9.960;2023-05-23T05:31:40;101048.13;;;15.54;nan
14343;BME280;7255;53.596;9.960;2023-05-23T05:34:07;101054.75;;;15.24;nan
14343;BME280;7255;53.596;9.960;2023-05-23T05:36:34;101061.66;;;15.15;nan
14343;BME280;7255;53.596;9.960;2023-05-23T05:39:00;101064.59;;;15.13;nan
14343;BME280;7255;53.596;9.960;2023-05-23T05:41:26;101065.56;;;15.07;nan
14343;BME280;7255;53.596;9.960;2023-05-23T05:43:53;101065.25;;;15.04;nan
14343;BME280;7255;53.596;9.960;2023-05-23T05:46:21;101072.66;;;14.91;nan
14343;BME280;7255;53.596;9.960;2023-05-23T05:48:47;101065.81;;;14.72;nan
14343;BME280;7255;53.596;9.960;2023-05-23T05:51:13;101075.25;;;14.86;nan
14343;BME280;7255;53.596;9.960;2023-05-23T05:53:40;101076.72;;;14.77;nan
14343;BME280;7255;53.596;9.960;2023-05-23T05:56:06;101071.31;;;14.94;nan
14343;BME280;7255;53.596;9.960;2023-05-23T05:58:33;101082.13;;;15.11;nan
14343;BME280;7255;53.596;9.960;2023-05-23T06:00:59;101078.56;;;15.22;nan
14343;BME280;7255;53.596;9.960;2023-05-23T06:03:27;101084.78;;;15.06;nan
14343;BME280;7255;53.596;9.960;2023-05-23T06:05:53;101081.81;;;15.07;nan
14343;BME280;7255;53.596;9.960;2023-05-23T06:08:20;101084.59;;;15.12;nan
14343;BME280;7255;53.596;9.960;2023-05-23T06:10:46;101087.72;;;15.21;nan
14343;BME280;7255;53.596;9.960;2023-05-23T06:13:12;101083.31;;;15.15;nan
14343;BME280;7255;53.596;9.960;2023-05-23T06:15:39;101087.91;;;15.31;nan
14343;BME280;7255;53.596;9.960;2023-05-23T06:18:05;101095.28;;;15.19;nan
14343;BME280;7255;53.596;9.960;2023-05-23T06:20:33;101099.22;;;15.11;nan
14343;BME280;7255;53.596;9.960;2023-05-23T06:22:59;101097.22;;;15.07;nan
14343;BME280;7255;53.596;9.960;2023-05-23T06:25:29;101095.56;;;14.89;nan
14343;BME280;7255;53.596;9.960;2023-05-23T06:27:55;101103.12;;;15.04;nan
14343;BME280;7255;53.596;9.960;2023-05-23T06:30:22;101106.72;;;14.75;nan
14343;BME280;7255;53.596;9.960;2023-05-23T06:32:48;101109.66;;;14.74;nan
14343;BME280;7255;53.596;9.960;2023-05-23T06:35:14;101101.63;;;14.79;nan
14343;BME280;7255;53.596;9.960;2023-05-23T06:37:43;101104.59;;;14.94;nan
14343;BME280;7255;53.596;9.960;2023-05-23T06:40:10;101115.25;;;14.84;nan
14343;BME280;7255;53.596;9.960;2023-05-23T06:42:37;101116.06;;;14.85;nan
14343;BME280;7255;53.596;9.960;2023-05-23T06:45:04;101121.28;;;14.74;nan
14343;BME280;7255;53.596;9.960;2023-05-23T06:47:30;101124.28;;;14.90;nan
14343;BME280;7255;53.596;9.960;2023-05-23T06:49:56;101125.75;;;14.97;nan
14343;BME280;7255;53.596;9.960;2023-05-23T06:52:23;101134.78;;;15.03;nan
14343;BME280;7255;53.596;9.960;2023-05-23T06:54:51;101128.50;;;14.69;nan
14343;BME280;7255;53.596;9.960;2023-05-23T06:57:17;101132.75;;;14.65;nan
14343;BME280;7255;53.596;9.960;2023-05-23T06:59:43;101142.28;;;14.55;nan
14343;BME280;7255;53.596;9.960;2023-05-23T07:02:10;101129.53;;;14.39;nan
14343;BME280;7255;53.596;9.960;2023-05-23T07:04:36;101138.84;;;14.72;nan
14343;BME280;7255;53.596;9.960;2023-05-23T07:07:03;101148.50;;;14.68;nan
14343;BME280;7255;53.596;9.960;2023-05-23T07:09:29;101133.31;;;14.38;nan
14343;BME280;7255;53.596;9.960;2023-05-23T07:11:57;101146.13;;;14.31;nan
14343;BME280;7255;53.596;9.960;2023-05-23T07:14:23;101146.22;;;14.36;nan
14343;BME280;7255;53.596;9.960;2023-05-23T07:16:49;101151.09;;;14.22;nan
14343;BME280;7255;53.596;9.960;2023-05-23T07:19:16;101152.63;;;14.06;nan
14343;BME280;7255;53.596;9.960;2023-05-23T07:21:42;101147.47;;;14.16;nan
14343;BME280;7255;53.596;9.960;2023-05-23T07:24:08;101169.75;;;14.23;nan
14343;BME280;7255;53.596;9.960;2023-05-23T07:26:34;101153.09;;;14.03;nan
14343;BME280;7255;53.596;9.960;2023-05-23T07:29:02;101163.31;;;14.13;nan
14343;BME280;7255;53.596;9.960;2023-05-23T07:31:29;101162.28;;;14.02;nan
14343;BME280;7255;53.596;9.960;2023-05-23T07:33:55;101159.25;;;13.86;nan
14343;BME280;7255;53.596;9.960;2023-05-23T07:36:22;101163.91;;;14.03;nan
14343;BME280;7255;53.596;9.960;2023-05-23T07:38:48;101174.25;;;14.06;nan
14343;BME280;7255;53.596;9.960;2023-05-23T07:41:14;101178.03;;;14.05;nan
14343;BME280;7255;53.596;9.960;2023-05-23T07:43:41;101176.34;;;14.28;nan
14343;BME280;7255;53.596;9.960;2023-05-23T07:46:08;101177.06;;;14.11;nan
14343;BME280;7255;53.596;9.960;2023-05-23T07:48:35;101174.44;;;14.40;nan
14343;BME280;7255;53.596;9.960;2023-05-23T07:51:01;101183.81;;;14.49;nan
14343;BME280;7255;53.596;9.960;2023-05-23T07:53:28;101187.72;;;14.82;nan
14343;BME280;7255;53.596;9.960;2023-05-23T07:55:54;101197.25;;;15.01;nan
14343;BME280;7255;53.596;9.960;2023-05-23T07:58:21;101195.09;;;14.87;nan
14343;BME280;7255;53.596;9.960;2023-05-23T08:00:47;101190.63;;;14.63;nan
14343;BME280;7255;53.596;9.960;2023-05-23T08:03:15;101188.25;;;14.55;nan
14343;BME280;7255;53.596;9.960;2023-05-23T08:05:43;101198.41;;;14.24;nan
14343;BME280;7255;53.596;9.960;2023-05-23T08:08:09;101198.19;;;14.38;nan
14343;BME280;7255;53.596;9.960;2023-05-23T08:10:35;101201.81;;;14.43;nan
14343;BME280;7255;53.596;9.960;2023-05-23T08:13:04;101198.12;;;14.61;nan
14343;BME280;7255;53.596;9.960;2023-05-23T08:15:31;101203.75;;;14.72;nan
14343;BME280;7255;53.596;9.960;2023-05-23T08:17:57;101210.59;;;14.62;nan
14343;BME280;7255;53.596;9.960;2023-05-23T08:20:25;101210.69;;;14.56;nan
14343;BME280;7255;53.596;9.960;2023-05-23T08:22:56;101216.47;;;14.59;nan
14343;BME280;7255;53.596;9.960;2023-05-23T08:25:22;101211.19;;;14.53;nan
14343;BME280;7255;53.596;9.960;2023-05-23T08:27:49;101214.84;;;14.58;nan
14343;BME280;7255;53.596;9.960;2023-05-23T08:30:16;101223.41;;;14.67;nan
14343;BME280;7255;53.596;9.960;2023-05-23T08:32:42;101222.12;;;14.46;nan
14343;BME280;7255;53.596;9.960;2023-05-23T08:35:08;101232.47;;;14.49;nan
14343;BME280;7255;53.596;9.960;2023-05-23T08:37:36;101237.53;;;14.46;nan
14343;BME280;7255;53.596;9.960;2023-05-23T08:40:06;101240.94;;;14.41;nan
14343;BME280;7255;53.596;9.960;2023-05-23T08:42:33;101247.50;;;14.45;nan
14343;BME280;7255;53.596;9.960;2023-05-23T08:44:59;101242.25;;;14.27;nan
14343;BME280;7255;53.596;9.960;2023-05-23T08:47:26;101253.25;;;14.49;nan
14343;BME280;7255;53.596;9.960;2023-05-23T08:49:54;101254.94;;;14.26;nan
14343;BME280;7255;53.596;9.960;2023-05-23T08:52:20;101250.13;;;14.40;nan
14343;BME280;7255;53.596;9.960;2023-05-23T08:54:51;101259.28;;;14.39;nan
14343;BME280;7255;53.596;9.960;2023-05-23T08:57:18;101265.50;;;14.16;nan
14343;BME280;7255;53.596;9.960;2023-05-23T08:59:45;101256.81;;;14.14;nan
14343;BME280;7255;53.596;9.960;2023-05-23T09:02:12;101260.13;;;13.92;nan
14343;BME280;7255;53.596;9.960;2023-05-23T09:04:40;101268.13;;;14.11;nan
14343;BME280;7255;53.596;9.960;2023-05-23T09:07:08;101268.69;;;14.24;nan
14343;BME280;7255;53.596;9.960;2023-05-23T09:09:36;101267.97;;;13.70;nan
14343;BME280;7255;53.596;9.960;2023-05-23T09:12:04;101272.59;;;13.39;nan
14343;BME280;7255;53.596;9.960;2023-05-23T09:14:31;101271.91;;;13.25;nan
14343;BME280;7255;53.596;9.960;2023-05-23T09:17:00;101276.47;;;12.95;nan
14343;BME280;7255;53.596;9.960;2023-05-23T09:19:28;101295.13;;;12.96;nan
14343;BME280;7255;53.596;9.960;2023-05-23T09:21:55;101299.31;;;12.92;nan
14343;BME280;7255;53.596;9.960;2023-05-23T09:24:21;101303.97;;;12.85;nan
14343;BME280;7255;53.596;9.960;2023-05-23T09:26:48;101317.78;;;12.77;nan
14343;BME280;7255;53.596;9.960;2023-05-23T09:29:19;101324.63;;;12.54;nan
14343;BME280;7255;53.596;9.960;2023-05-23T09:31:46;101324.13;;;12.64;nan
14343;BME280;7255;53.596;9.960;2023-05-23T09:34:12;101338.50;;;12.76;nan
14343;BME280;7255;53.596;9.960;2023-05-23T09:36:40;101336.19;;;12.61;nan
14343;BME280;7255;53.596;9.960;2023-05-23T09:39:10;101333.78;;;12.53;nan
14343;BME280;7255;53.596;9.960;2023-05-23T09:41:37;101330.41;;;12.58;nan
14343;BME280;7255;53.596;9.960;2023-05-23T09:44:07;101332.94;;;12.52;nan
14343;BME280;7255;53.596;9.960;2023-05-23T09:46:36;101338.31;;;12.52;nan
14343;BME280;7255;53.596;9.960;2023-05-23T09:49:13;101340.03;;;12.47;nan
14343;BME280;7255;53.596;9.960;2023-05-23T09:51:40;101340.56;;;12.37;nan
14343;BME280;7255;53.596;9.960;2023-05-23T09:54:06;101354.19;;;12.42;nan
14343;BME280;7255;53.596;9.960;2023-05-23T09:56:34;101357.34;;;12.58;nan
14343;BME280;7255;53.596;9.960;2023-05-23T09:59:04;101360.06;;;12.32;nan
14343;BME280;7255;53.596;9.960;2023-05-23T10:01:33;101357.06;;;12.47;nan
14343;BME280;7255;53.596;9.960;2023-05-23T10:04:02;101354.00;;;12.62;nan
14343;BME280;7255;53.596;9.960;2023-05-23T10:06:31;101360.16;;;12.69;nan
14343;BME280;7255;53.596;9.960;2023-05-23T10:09:02;101367.94;;;12.78;nan
14343;BME280;7255;53.596;9.960;2023-05-23T10:14:30;101367.78;;;12.91;nan
14343;BME280;7255;53.596;9.960;2023-05-23T10:17:06;101356.41;;;12.70;nan
14343;BME280;7255;53.596;9.960;2023-05-23T10:19:38;101368.53;;;12.61;nan
14343;BME280;7255;53.596;9.960;2023-05-23T10:22:09;101355.63;;;12.63;nan
14343;BME280;7255;53.596;9.960;2023-05-23T10:24:37;101375.00;;;12.79;nan
14343;BME280;7255;53.596;9.960;2023-05-23T10:27:05;101369.50;;;12.85;nan
14343;BME280;7255;53.596;9.960;2023-05-23T10:29:32;101380.25;;;12.92;nan
14343;BME280;7255;53.596;9.960;2023-05-23T10:32:00;101382.56;;;13.07;nan
14343;BME280;7255;53.596;9.960;2023-05-23T10:34:33;101379.47;;;12.85;nan
14343;BME280;7255;53.596;9.960;2023-05-23T10:37:04;101381.41;;;12.59;nan
14343;BME280;7255;53.596;9.960;2023-05-23T10:39:41;101393.84;;;12.60;nan
14343;BME280;7255;53.596;9.960;2023-05-23T10:42:14;101392.00;;;12.79;nan
14343;BME280;7255;53.596;9.960;2023-05-23T10:44:42;101401.22;;;13.08;nan
14343;BME280;7255;53.596;9.960;2023-05-23T10:47:08;101419.34;;;13.20;nan
14343;BME280;7255;53.596;9.960;2023-05-23T10:49:37;101415.78;;;13.44;nan
14343;BME280;7255;53.596;9.960;2023-05-23T10:52:06;101408.56;;;13.20;nan
14343;BME280;7255;53.596;9.960;2023-05-23T10:54:36;101432.56;;;13.28;nan
14343;BME280;7255;53.596;9.960;2023-05-23T10:57:09;101423.41;;;13.29;nan
14343;BME280;7255;53.596;9.960;2023-05-23T10:59:35;101421.72;;;12.91;nan
14343;BME280;7255;53.596;9.960;2023-05-23T11:02:03;101412.44;;;13.05;nan
14343;BME280;7255;53.596;9.960;2023-05-23T11:04:31;101419.78;;;13.17;nan
14343;BME280;7255;53.596;9.960;2023-05-23T11:06:58;101423.84;;;13.26;nan
14343;BME280;7255;53.596;9.960;2023-05-23T11:09:26;101429.69;;;13.60;nan
14343;BME280;7255;53.596;9.960;2023-05-23T11:12:00;101423.28;;;14.03;nan
14343;BME280;7255;53.596;9.960;2023-05-23T11:14:51;101430.16;;;14.41;nan
14343;BME280;7255;53.596;9.960;2023-05-23T11:17:29;101441.66;;;14.78;nan
14343;BME280;7255;53.596;9.960;2023-05-23T11:19:58;101451.97;;;14.58;nan
14343;BME280;7255;53.596;9.960;2023-05-23T11:22:26;101445.28;;;14.60;nan
14343;BME280;7255;53.596;9.960;2023-05-23T11:24:56;101441.25;;;14.51;nan
14343;BME280;7255;53.596;9.960;2023-05-23T11:27:26;101446.91;;;14.61;nan
14343;BME280;7255;53.596;9.960;2023-05-23T11:30:01;101447.06;;;14.78;nan
14343;BME280;7255;53.596;9.960;2023-05-23T11:32:29;101440.94;;;14.71;nan
14343;BME280;7255;53.596;9.960;2023-05-23T11:34:58;101445.75;;;14.81;nan
14343;BME280;7255;53.596;9.960;2023-05-23T11:37:26;101442.47;;;14.79;nan
14343;BME280;7255;53.596;9.960;2023-05-23T11:39:52;101462.22;;;14.68;nan
14343;BME280;7255;53.596;9.960;2023-05-23T11:42:21;101452.56;;;14.72;nan
14343;BME280;7255;53.596;9.960;2023-05-23T11:44:48;101452.34;;;14.85;nan
14343;BME280;7255;53.596;9.960;2023-05-23T11:47:14;101459.03;;;14.82;nan
14343;BME280;7255;53.596;9.960;2023-05-23T11:49:43;101472.69;;;14.64;nan
14343;BME280;7255;53.596;9.960;2023-05-23T11:52:09;101465.00;;;14.49;nan
14343;BME280;7255;53.596;9.960;2023-05-23T11:54:36;101470.31;;;14.79;nan
14343;BME280;7255;53.596;9.960;2023-05-23T11:57:03;101485.69;;;14.55;nan
14343;BME280;7255;53.596;9.960;2023-05-23T11:59:31;101485.19;;;14.35;nan
14343;BME280;7255;53.596;9.960;2023-05-23T12:01:57;101491.53;;;14.52;nan
14343;BME280;7255;53.596;9.960;2023-05-23T12:04:24;101479.16;;;14.75;nan
14343;BME280;7255;53.596;9.960;2023-05-23T12:06:51;101466.22;;;14.77;nan
14343;BME280;7255;53.596;9.960;2023-05-23T12:09:18;101476.81;;;14.90;nan
14343;BME280;7255;53.596;9.960;2023-05-23T12:11:44;101489.28;;;14.91;nan
14343;BME280;7255;53.596;9.960;2023-05-23T12:14:14;101485.50;;;14.92;nan
14343;BME280;7255;53.596;9.960;2023-05-23T12:16:43;101483.16;;;15.31;nan
14343;BME280;7255;53.596;9.960;2023-05-23T12:19:11;101485.94;;;15.36;nan
14343;BME280;7255;53.596;9.960;2023-05-23T12:21:42;101492.91;;;15.20;nan
14343;BME280;7255;53.596;9.960;2023-05-23T12:24:17;101491.16;;;16.07;nan
14343;BME280;7255;53.596;9.960;2023-05-23T12:26:51;101495.84;;;16.58;nan
14343;BME280;7255;53.596;9.960;2023-05-23T12:29:19;101497.50;;;16.59;nan
14343;BME280;7255;53.596;9.960;2023-05-23T12:31:50;101499.75;;;16.16;nan
14343;BME280;7255;53.596;9.960;2023-05-23T12:34:19;101509.44;;;16.12;nan
14343;BME280;7255;53.596;9.960;2023-05-23T12:36:45;101490.22;;;15.73;nan
14343;BME280;7255;53.596;9.960;2023-05-23T12:39:13;101499.31;;;15.55;nan
14343;BME280;7255;53.596;9.960;2023-05-23T12:41:41;101516.03;;;15.75;nan
14343;BME280;7255;53.596;9.960;2023-05-23T12:44:08;101510.63;;;15.75;nan
14343;BME280;7255;53.596;9.960;2023-05-23T12:46:34;101506.62;;;15.66;nan
14343;BME280;7255;53.596;9.960;2023-05-23T12:49:02;101510.69;;;15.28;nan
14343;BME280;7255;53.596;9.960;2023-05-23T12:51:28;101524.34;;;15.33;nan
14343;BME280;7255;53.596;9.960;2023-05-23T12:53:55;101520.03;;;15.85;nan
14343;BME280;7255;53.596;9.960;2023-05-23T12:56:22;101535.34;;;15.67;nan
14343;BME280;7255;53.596;9.960;2023-05-23T12:58:48;101521.50;;;15.28;nan
14343;BME280;7255;53.596;9.960;2023-05-23T13:01:15;101529.03;;;15.50;nan
14343;BME280;7255;53.596;9.960;2023-05-23T13:03:41;101549.31;;;16.00;nan
14343;BME280;7255;53.596;9.960;2023-05-23T13:06:09;101521.84;;;15.55;nan
14343;BME280;7255;53.596;9.960;2023-05-23T13:08:36;101530.53;;;15.57;nan
14343;BME280;7255;53.596;9.960;2023-05-23T13:11:03;101553.28;;;15.21;nan
14343;BME280;7255;53.596;9.960;2023-05-23T13:13:29;101536.34;;;15.14;nan
14343;BME280;7255;53.596;9.960;2023-05-23T13:15:56;101549.50;;;14.75;nan
14343;BME280;7255;53.596;9.960;2023-05-23T13:18:23;101540.44;;;14.39;nan
14343;BME280;7255;53.596;9.960;2023-05-23T13:20:50;101549.13;;;14.41;nan
14343;BME280;7255;53.596;9.960;2023-05-23T13:23:17;101545.75;;;14.46;nan
14343;BME280;7255;53.596;9.960;2023-05-23T13:25:43;101540.16;;;14.29;nan
14343;BME280;7255;53.596;9.960;2023-05-23T13:28:10;101550.56;;;14.55;nan